createdAt,value
2022-08-17T00:00:18.254Z,6.60
2022-08-17T00:06:02.910Z,6.60
2022-08-17T00:11:14.517Z,6.10
2022-08-17T00:16:55.414Z,6.10
2022-08-17T00:22:32.814Z,7.00
2022-08-17T00:27:21.895Z,7.40
2022-08-17T00:33:12.357Z,7.60
2022-08-17T00:37:48.690Z,7.40
2022-08-17T00:42:53.599Z,7.20
2022-08-17T00:47:56.959Z,6.50
2022-08-17T00:53:00.875Z,6.90
2022-08-17T00:58:06.542Z,6.50
2022-08-17T01:03:19.887Z,8.00
2022-08-17T01:08:27.375Z,6.70
2022-08-17T01:13:43.409Z,7.00
2022-08-17T01:18:50.917Z,6.30
2022-08-17T01:23:54.432Z,6.20
2022-08-17T01:34:03.666Z,5.70
2022-08-17T01:39:12.176Z,6.20
2022-08-17T01:44:17.095Z,6.20
2022-08-17T01:49:20.415Z,7.10
2022-08-17T01:54:25.971Z,5.80
2022-08-17T01:59:29.281Z,6.30
2022-08-17T02:04:32.541Z,6.60
2022-08-17T02:09:35.801Z,6.70
2022-08-17T02:14:44.949Z,6.30
2022-08-17T02:25:00.815Z,6.60
2022-08-17T02:30:59.531Z,7.00
2022-08-17T02:35:32.296Z,6.90
2022-08-17T02:40:37.621Z,6.90
2022-08-17T02:45:41.064Z,7.70
2022-08-17T02:50:44.373Z,7.30
2022-08-17T02:55:47.685Z,7.50
2022-08-17T03:05:54.306Z,7.10
2022-08-17T03:10:58.136Z,6.90
2022-08-17T03:16:01.647Z,7.70
2022-08-17T03:21:05.165Z,7.70
2022-08-17T03:31:19.057Z,7.60
2022-08-17T03:36:22.673Z,8.00
2022-08-17T03:46:47.828Z,7.90
2022-08-17T03:52:10.391Z,7.50
2022-08-17T03:57:14.121Z,8.30
2022-08-17T04:02:28.896Z,7.40
2022-08-17T04:07:32.210Z,7.50
2022-08-17T04:12:55.071Z,8.90
2022-08-17T04:17:58.382Z,8.40
2022-08-17T04:23:11.935Z,7.80
2022-08-17T04:33:25.126Z,8.30
2022-08-17T04:38:32.148Z,8.20
2022-08-17T04:43:38.079Z,9.00
2022-08-17T04:48:45.130Z,8.50
2022-08-17T04:53:54.445Z,9.00
2022-08-17T04:59:01.726Z,8.80
2022-08-17T05:04:21.034Z,8.50
2022-08-17T05:09:32.931Z,9.00
2022-08-17T05:14:39.323Z,8.10
2022-08-17T05:19:42.626Z,7.30
2022-08-17T05:29:57.441Z,8.00
2022-08-17T05:50:29.903Z,7.90
2022-08-17T05:56:29.226Z,7.70
2022-08-17T06:02:04.523Z,7.90
2022-08-17T06:07:24.522Z,7.60
2022-08-17T06:12:46.190Z,7.50
2022-08-17T06:18:13.805Z,9.30
2022-08-17T06:23:31.324Z,8.60
2022-08-17T06:28:41.666Z,8.60
2022-08-17T06:33:47.944Z,8.20
2022-08-17T06:39:38.091Z,8.30
2022-08-17T06:44:51.491Z,7.50
2022-08-17T06:50:16.930Z,7.70
2022-08-17T06:55:45.533Z,8.20
2022-08-17T07:00:56.710Z,8.20
2022-08-17T07:06:09.359Z,8.20
2022-08-17T07:11:17.043Z,8.30
2022-08-17T07:16:31.548Z,8.80
2022-08-17T07:22:14.388Z,7.80
2022-08-17T07:27:36.247Z,7.70
2022-08-17T07:32:46.297Z,6.80
2022-08-17T07:37:55.833Z,7.60
2022-08-17T07:43:23.009Z,7.10
2022-08-17T07:48:27.927Z,7.40
2022-08-17T07:53:32.315Z,7.80
2022-08-17T07:58:35.723Z,7.60
2022-08-17T08:03:44.722Z,7.50
2022-08-17T08:08:56.107Z,7.70
2022-08-17T08:14:28.647Z,7.70
2022-08-17T08:19:33.204Z,6.80
2022-08-17T08:24:45.733Z,5.80
2022-08-17T08:29:54.571Z,6.70
2022-08-17T08:35:13.449Z,5.60
2022-08-17T08:40:22.698Z,6.30
2022-08-17T08:45:33.381Z,4.80
2022-08-17T08:50:43.660Z,4.60
2022-08-17T08:56:01.508Z,5.50
2022-08-17T09:01:17.656Z,5.50
2022-08-17T09:06:59.534Z,4.50
2022-08-17T09:12:17.082Z,5.30
2022-08-17T09:17:40.772Z,5.20
2022-08-17T09:22:51.043Z,5.30
2022-08-17T09:28:19.497Z,4.80
2022-08-17T09:33:27.947Z,5.00
2022-08-17T09:38:54.222Z,5.10
2022-08-17T09:44:10.732Z,5.20
2022-08-17T09:49:47.137Z,4.90
2022-08-17T09:54:52.574Z,4.50
2022-08-17T10:00:03.377Z,4.80
2022-08-17T10:05:22.152Z,4.50
2022-08-17T10:10:33.346Z,4.80
2022-08-17T10:15:42.705Z,4.50
2022-08-17T10:21:20.110Z,4.10
2022-08-17T10:26:26.805Z,3.90
2022-08-17T10:31:52.332Z,3.50
2022-08-17T10:37:38.959Z,5.40
2022-08-17T10:43:00.908Z,4.00
2022-08-17T10:48:07.482Z,3.60
2022-08-17T10:53:11.114Z,4.00
2022-08-17T10:58:22.253Z,3.60
2022-08-17T11:03:26.722Z,3.70
2022-08-17T11:08:36.614Z,3.70
2022-08-17T11:13:59.581Z,3.30
2022-08-17T11:19:40.164Z,3.10
2022-08-17T11:24:48.049Z,3.20
2022-08-17T11:30:00.949Z,2.90
2022-08-17T11:35:12.429Z,3.60
2022-08-17T11:40:34.473Z,3.20
2022-08-17T11:46:11.495Z,3.60
2022-08-17T11:51:35.983Z,3.10
2022-08-17T11:56:41.543Z,3.20
2022-08-17T12:01:56.921Z,5.20
2022-08-17T12:07:17.453Z,4.40
2022-08-17T12:12:38.275Z,3.70
2022-08-17T12:17:42.865Z,3.90
2022-08-17T12:23:15.514Z,4.10
2022-08-17T12:28:33.058Z,5.00
2022-08-17T12:33:42.719Z,3.30
2022-08-17T12:39:13.297Z,3.10
2022-08-17T12:44:23.544Z,3.10
2022-08-17T12:49:30.029Z,3.40
2022-08-17T12:54:42.377Z,2.80
2022-08-17T12:59:50.885Z,3.40
2022-08-17T13:04:57.055Z,3.20
2022-08-17T13:10:00.373Z,8.10
2022-08-17T13:15:04.577Z,3.70
2022-08-17T13:20:15.344Z,3.40
2022-08-17T13:25:19.135Z,2.80
2022-08-17T13:30:29.454Z,3.10
2022-08-17T13:35:50.290Z,2.90
2022-08-17T13:40:54.134Z,2.80
2022-08-17T13:46:13.007Z,3.00
2022-08-17T13:51:25.127Z,3.10
2022-08-17T13:56:41.032Z,3.40
2022-08-17T14:01:52.794Z,4.90
2022-08-17T14:07:15.815Z,3.30
2022-08-17T14:12:24.706Z,2.80
2022-08-17T14:17:31.024Z,2.20
2022-08-17T14:22:38.939Z,2.60
2022-08-17T14:27:52.864Z,3.10
2022-08-17T14:32:58.350Z,2.90
2022-08-17T14:38:06.297Z,2.70
2022-08-17T14:43:09.611Z,5.40
2022-08-17T14:48:13.023Z,3.70
2022-08-17T14:53:16.848Z,2.80
2022-08-17T14:58:20.363Z,4.50
2022-08-17T15:03:23.877Z,3.20
2022-08-17T15:08:28.730Z,3.00
2022-08-17T15:13:32.241Z,2.90
2022-08-17T15:18:36.936Z,3.70
2022-08-17T15:23:40.299Z,3.30
2022-08-17T15:28:48.986Z,3.50
2022-08-17T15:33:58.899Z,2.60
2022-08-17T15:39:03.438Z,2.90
2022-08-17T15:44:06.752Z,3.70
2022-08-17T15:49:09.962Z,7.40
2022-08-17T15:54:19.172Z,3.80
2022-08-17T15:59:26.419Z,3.90
2022-08-17T16:04:31.805Z,13.00
2022-08-17T16:09:35.489Z,4.70
2022-08-17T16:14:39.108Z,3.30
2022-08-17T16:19:42.418Z,3.50
2022-08-17T16:24:57.078Z,3.30
2022-08-17T16:30:01.432Z,3.30
2022-08-17T16:35:09.080Z,3.50
2022-08-17T16:40:13.447Z,3.30
2022-08-17T16:45:20.142Z,3.10
2022-08-17T16:50:24.305Z,4.50
2022-08-17T16:55:27.716Z,3.90
2022-08-17T17:00:32.012Z,4.00
2022-08-17T17:05:44.475Z,3.90
2022-08-17T17:10:56.172Z,4.70
2022-08-17T17:16:24.478Z,4.50
2022-08-17T17:21:42.729Z,4.50
2022-08-17T17:27:00.819Z,6.00
2022-08-17T17:32:25.513Z,4.30
2022-08-17T17:37:34.345Z,4.10
2022-08-17T17:42:40.940Z,4.40
2022-08-17T17:47:45.147Z,4.60
2022-08-17T17:53:04.456Z,4.80
2022-08-17T17:58:18.237Z,3.90
2022-08-17T18:03:59.620Z,4.30
2022-08-17T18:09:40.922Z,4.60
2022-08-17T18:15:12.188Z,4.50
2022-08-17T18:20:37.126Z,4.50
2022-08-17T18:25:53.722Z,4.40
2022-08-17T18:31:16.698Z,4.50
2022-08-17T18:36:29.529Z,5.30
2022-08-17T18:41:44.205Z,4.90
2022-08-17T18:46:47.458Z,5.20
2022-08-17T18:52:14.191Z,5.20
2022-08-17T18:57:31.811Z,4.80
2022-08-17T19:02:45.211Z,4.40
2022-08-17T19:07:49.835Z,4.00
2022-08-17T19:12:58.450Z,5.20
2022-08-17T19:23:29.749Z,4.40
2022-08-17T19:28:39.417Z,4.70
2022-08-17T19:33:47.854Z,4.50
2022-08-17T19:38:54.541Z,4.60
2022-08-17T19:44:19.549Z,7.50
2022-08-17T19:49:41.700Z,5.00
2022-08-17T19:55:01.907Z,4.90
2022-08-17T20:00:19.612Z,5.00
2022-08-17T20:05:31.159Z,8.60
2022-08-17T20:10:54.963Z,6.20
2022-08-17T20:15:58.876Z,6.00
2022-08-17T20:21:19.946Z,5.60
2022-08-17T20:26:49.106Z,6.10
2022-08-17T20:31:58.782Z,6.50
2022-08-17T20:42:34.127Z,4.90
2022-08-17T20:47:50.621Z,5.30
2022-08-17T20:53:10.293Z,5.10
2022-08-17T20:58:15.652Z,5.90
2022-08-17T21:03:24.597Z,5.90
2022-08-17T21:08:36.199Z,6.70
2022-08-17T21:14:02.140Z,6.30
2022-08-17T21:19:23.575Z,7.10
2022-08-17T21:24:43.887Z,6.60
2022-08-17T21:30:06.580Z,6.40
2022-08-17T21:35:22.456Z,6.90
2022-08-17T21:40:31.297Z,7.00
2022-08-17T21:45:39.007Z,7.90
2022-08-17T21:50:46.293Z,7.20
2022-08-17T21:55:52.465Z,6.30
2022-08-17T22:01:22.058Z,6.30
2022-08-17T22:06:30.347Z,6.30
2022-08-17T22:12:02.332Z,7.10
2022-08-17T22:17:30.320Z,7.20
2022-08-17T22:23:18.995Z,6.70
2022-08-17T22:28:40.943Z,6.20
2022-08-17T22:33:48.454Z,6.60
2022-08-17T22:38:56.172Z,5.30
2022-08-17T22:44:09.104Z,5.90
2022-08-17T22:49:12.413Z,5.90
2022-08-17T22:54:37.432Z,5.80
2022-08-17T22:59:49.141Z,5.80
2022-08-17T23:05:17.034Z,5.30
2022-08-17T23:10:20.245Z,5.70
2022-08-17T23:15:27.543Z,5.50
2022-08-17T23:20:34.542Z,5.40
2022-08-17T23:25:38.569Z,5.00
2022-08-17T23:30:44.440Z,5.30
2022-08-17T23:35:48.160Z,5.10
2022-08-17T23:45:57.677Z,5.60
2022-08-17T23:51:04.324Z,5.80
2022-08-17T23:56:11.499Z,5.80
